Time;durP1;ratioP1;P1;durP2;ratioP2;P2;SDS_P1;SDS_P2;PMS_P1;PMS_P2;Temp;Humidity;BMP_temperature;BMP_pressure;BME280_temperature;BME280_humidity;BME280_pressure;Samples;Min_cycle;Max_cycle;Signal;HPM_P1;HPM_P2
2021/12/02 00:02:14;;;;;;;4.68;1.20;;;6.60;99.90;;;;;;5011914;28;20392;-53
2021/12/02 00:04:40;;;;;;;4.13;1.20;;;6.50;99.90;;;;;;5007061;28;20430;-53
2021/12/02 00:07:07;;;;;;;4.55;1.23;;;6.50;99.90;;;;;;5009085;28;20475;-53
2021/12/02 00:09:35;;;;;;;4.67;1.30;;;6.40;99.90;;;;;;5010962;28;20882;-53
2021/12/02 00:12:01;;;;;;;4.50;1.10;;;6.40;99.90;;;;;;5009188;28;20423;-53
2021/12/02 00:14:28;;;;;;;6.10;1.40;;;6.40;99.90;;;;;;5010599;28;20388;-53
2021/12/02 00:22:11;;;;;;;5.30;1.15;;;6.30;99.90;;;;;;5006549;28;20455;-53
2021/12/02 00:24:39;;;;;;;4.00;1.10;;;6.30;99.90;;;;;;4991065;28;20393;-53
2021/12/02 00:27:07;;;;;;;5.05;1.10;;;6.10;99.90;;;;;;5004345;28;20496;-54
2021/12/02 00:29:35;;;;;;;4.80;1.10;;;6.10;99.90;;;;;;5003400;28;20397;-54
2021/12/02 00:32:06;;;;;;;4.00;0.85;;;6.10;99.90;;;;;;5009280;28;20399;-55
2021/12/02 00:34:33;;;;;;;4.90;0.90;;;6.00;99.90;;;;;;5010248;28;20385;-55
2021/12/02 00:37:01;;;;;;;5.97;1.23;;;6.10;99.90;;;;;;5011360;28;20487;-56
2021/12/02 00:44:50;;;;;;;5.90;0.90;;;5.90;99.90;;;;;;5258971;23;20477;-58
2021/12/02 00:47:16;;;;;;;6.43;0.90;;;5.90;99.90;;;;;;4992609;28;20410;-54
2021/12/02 00:49:45;;;;;;;5.15;1.20;;;6.00;99.90;;;;;;4992634;28;20390;-54
2021/12/02 00:52:11;;;;;;;4.40;1.00;;;6.00;99.90;;;;;;4991411;28;20466;-54
2021/12/02 00:54:41;;;;;;;6.13;0.90;;;6.10;99.90;;;;;;4983411;28;20404;-54
2021/12/02 00:57:10;;;;;;;6.53;0.90;;;6.10;99.90;;;;;;4991116;28;20485;-55
2021/12/02 00:59:36;;;;;;;7.20;1.10;;;6.10;99.90;;;;;;4991848;28;20426;-54
2021/12/02 01:02:02;;;;;;;6.05;1.00;;;6.20;99.90;;;;;;4990136;28;20554;-54
2021/12/02 01:04:28;;;;;;;4.72;1.00;;;6.20;99.90;;;;;;4991630;28;20852;-54
2021/12/02 01:06:54;;;;;;;4.88;1.20;;;6.20;99.90;;;;;;4990937;28;20524;-54
2021/12/02 01:09:20;;;;;;;5.20;1.40;;;6.20;99.90;;;;;;4991579;28;20502;-54
2021/12/02 01:11:46;;;;;;;5.77;0.97;;;6.40;99.90;;;;;;4991649;28;20879;-52
2021/12/02 01:14:12;;;;;;;5.00;1.07;;;6.50;99.90;;;;;;4990617;28;20381;-52
2021/12/02 01:16:38;;;;;;;4.70;1.00;;;6.30;99.90;;;;;;4991144;28;20936;-55
2021/12/02 01:19:06;;;;;;;4.90;1.00;;;6.20;99.90;;;;;;4990552;28;20430;-55
2021/12/02 01:21:32;;;;;;;5.82;1.00;;;6.30;99.90;;;;;;4991521;28;20848;-52
2021/12/02 01:24:03;;;;;;;4.30;0.90;;;6.30;99.90;;;;;;4990606;28;20390;-52
2021/12/02 01:26:31;;;;;;;4.68;1.00;;;6.40;99.90;;;;;;4991341;28;20474;-54
2021/12/02 01:28:58;;;;;;;5.53;1.00;;;6.30;99.90;;;;;;4989836;28;20939;-55
2021/12/02 01:31:31;;;;;;;3.50;0.70;;;6.10;99.90;;;;;;4991421;28;20421;-54
2021/12/02 01:34:01;;;;;;;5.90;0.90;;;6.00;99.90;;;;;;4991130;28;20374;-55
2021/12/02 01:36:36;;;;;;;5.30;1.30;;;6.00;99.90;;;;;;4991321;28;20522;-54
2021/12/02 01:39:04;;;;;;;4.70;1.00;;;6.00;99.90;;;;;;4990017;28;20410;-55
2021/12/02 01:41:37;;;;;;;5.30;0.90;;;6.00;99.90;;;;;;4991108;28;20480;-55
2021/12/02 01:44:10;;;;;;;4.05;0.85;;;6.10;99.90;;;;;;4988692;28;20481;-55
2021/12/02 01:46:38;;;;;;;6.80;1.00;;;6.00;99.90;;;;;;4990787;28;20429;-54
2021/12/02 01:49:05;;;;;;;5.20;0.73;;;6.10;99.90;;;;;;4990113;28;20406;-54
2021/12/02 01:51:44;;;;;;;5.57;1.10;;;6.00;99.90;;;;;;4990880;28;20394;-54
2021/12/02 01:54:13;;;;;;;7.23;1.00;;;6.10;99.90;;;;;;4989644;28;20410;-55
2021/12/02 01:57:07;;;;;;;5.40;1.10;;;6.10;99.90;;;;;;4990966;28;20417;-56
2021/12/02 01:59:38;;;;;;;5.85;1.17;;;6.20;99.90;;;;;;4988271;28;20501;-55
2021/12/02 02:02:09;;;;;;;4.85;1.00;;;6.40;99.90;;;;;;4988038;28;20943;-55
2021/12/02 02:04:35;;;;;;;4.57;1.00;;;6.30;99.90;;;;;;4990009;28;20891;-55
2021/12/02 02:07:06;;;;;;;4.13;1.10;;;6.20;99.90;;;;;;4989249;28;20745;-52
2021/12/02 02:09:33;;;;;;;4.50;1.00;;;6.40;99.90;;;;;;4990696;28;20804;-52
2021/12/02 02:12:05;;;;;;;4.90;0.90;;;6.50;99.90;;;;;;4989104;28;20745;-52
2021/12/02 02:14:31;;;;;;;6.90;1.00;;;6.50;99.90;;;;;;4990187;28;20394;-52
2021/12/02 02:17:00;;;;;;;5.20;1.10;;;6.50;99.90;;;;;;4989391;28;20406;-54
2021/12/02 02:19:31;;;;;;;6.40;1.30;;;6.50;99.90;;;;;;4990606;28;20478;-52
2021/12/02 02:21:58;;;;;;;3.85;0.85;;;6.50;99.90;;;;;;4989582;28;20480;-52
2021/12/02 02:24:24;;;;;;;4.55;1.10;;;6.40;99.90;;;;;;4990308;28;20397;-52
2021/12/02 02:26:50;;;;;;;6.63;1.08;;;6.40;99.90;;;;;;4990137;28;20402;-52
2021/12/02 02:29:18;;;;;;;4.35;0.90;;;5.20;99.90;;;;;;4989560;28;20840;-52
2021/12/02 02:31:44;;;;;;;5.80;1.00;;;6.50;99.90;;;;;;4990199;28;20441;-53
2021/12/02 02:34:12;;;;;;;3.90;0.80;;;6.60;99.90;;;;;;4989346;28;21241;-52
2021/12/02 02:36:41;;;;;;;4.70;0.80;;;6.60;99.90;;;;;;4990171;28;20410;-52
2021/12/02 02:39:07;;;;;;;4.10;1.00;;;6.60;99.90;;;;;;4989253;28;20386;-51
2021/12/02 02:41:39;;;;;;;5.90;0.90;;;6.50;99.90;;;;;;4990153;28;20421;-52
2021/12/02 02:44:05;;;;;;;4.90;0.77;;;6.50;99.90;;;;;;4989064;28;20391;-53
2021/12/02 02:46:37;;;;;;;4.25;0.90;;;6.30;99.90;;;;;;4989540;28;20422;-52
2021/12/02 02:49:09;;;;;;;5.30;0.93;;;6.30;99.90;;;;;;4989185;28;20405;-53
2021/12/02 02:51:37;;;;;;;5.05;0.75;;;6.20;99.90;;;;;;4990158;28;20391;-52
2021/12/02 02:54:06;;;;;;;5.17;0.87;;;6.10;99.90;;;;;;4989383;28;20397;-53
2021/12/02 02:56:35;;;;;;;4.22;0.52;;;6.10;99.90;;;;;;4988730;28;20420;-53
2021/12/02 03:04:16;;;;;;;3.60;0.80;;;5.90;99.90;;;;;;4989204;28;20386;-53
2021/12/02 03:06:51;;;;;;;4.00;0.60;;;5.80;99.90;;;;;;4988764;28;20438;-53
2021/12/02 03:09:37;;;;;;;3.40;0.57;;;5.80;99.90;;;;;;4989118;28;20387;-53
2021/12/02 03:12:11;;;;;;;4.00;0.70;;;5.70;99.90;;;;;;4988721;28;20934;-53
2021/12/02 03:14:49;;;;;;;3.70;0.60;;;5.70;99.90;;;;;;4988780;28;20402;-53
2021/12/02 03:17:17;;;;;;;3.63;0.60;;;5.70;99.90;;;;;;4989105;28;20399;-53
2021/12/02 03:19:44;;;;;;;4.47;0.80;;;5.60;99.90;;;;;;4989683;28;20393;-53
2021/12/02 03:22:11;;;;;;;3.50;0.60;;;5.50;99.90;;;;;;4988989;28;20903;-53
2021/12/02 03:24:37;;;;;;;3.33;0.60;;;5.50;99.90;;;;;;4991424;28;20876;-56
2021/12/02 03:27:03;;;;;;;4.60;0.60;;;5.40;99.90;;;;;;4992974;28;20401;-53
2021/12/02 03:29:29;;;;;;;3.20;0.50;;;5.30;99.90;;;;;;4993348;28;20386;-53
2021/12/02 03:31:55;;;;;;;4.63;0.60;;;5.30;99.90;;;;;;4992059;28;20477;-58
2021/12/02 03:34:21;;;;;;;3.40;0.70;;;5.30;99.90;;;;;;4993108;28;20525;-53
2021/12/02 03:36:47;;;;;;;3.70;0.60;;;5.30;99.90;;;;;;4993105;28;20418;-53
2021/12/02 03:39:12;;;;;;;4.60;0.67;;;6.80;99.90;;;;;;4992668;28;20397;-54
2021/12/02 03:41:40;;;;;;;3.70;0.80;;;5.40;99.90;;;;;;4992116;28;20831;-54
2021/12/02 03:44:07;;;;;;;4.60;0.70;;;5.40;99.90;;;;;;4992233;28;20481;-53
2021/12/02 03:46:33;;;;;;;4.47;0.60;;;5.40;99.90;;;;;;4992996;28;20827;-53
2021/12/02 03:48:59;;;;;;;4.10;0.80;;;5.40;99.90;;;;;;4992445;28;20387;-54
2021/12/02 03:51:25;;;;;;;4.00;0.80;;;5.50;99.90;;;;;;4991501;28;20513;-54
2021/12/02 03:53:52;;;;;;;4.50;0.85;;;6.00;99.90;;;;;;4992884;28;20437;-55
2021/12/02 03:56:18;;;;;;;3.30;0.60;;;5.50;99.90;;;;;;4992218;28;20402;-54
2021/12/02 03:58:46;;;;;;;3.30;0.60;;;5.70;99.90;;;;;;4993128;28;20394;-53
2021/12/02 04:01:14;;;;;;;5.10;0.90;;;5.60;99.90;;;;;;4991975;28;20386;-56
2021/12/02 04:03:40;;;;;;;4.50;0.80;;;5.60;99.90;;;;;;4991821;28;20481;-54
2021/12/02 04:06:07;;;;;;;3.50;0.73;;;5.70;99.90;;;;;;4992001;28;20462;-54
2021/12/02 04:11:35;;;;;;;4.20;0.70;;;5.80;99.90;;;;;;4992248;28;20924;-54
2021/12/02 04:16:23;;;;;;;3.30;0.70;;;5.50;99.90;;;;;;4992912;28;20528;-54
2021/12/02 04:18:49;;;;;;;3.90;0.80;;;5.50;99.90;;;;;;4992644;28;20394;-53
2021/12/02 04:21:15;;;;;;;3.88;0.80;;;5.50;99.90;;;;;;4992152;28;20393;-53
2021/12/02 04:23:41;;;;;;;4.97;1.50;;;5.50;99.90;;;;;;4992671;28;20379;-53
2021/12/02 04:26:07;;;;;;;4.10;1.00;;;5.50;99.90;;;;;;4991790;28;20422;-53
2021/12/02 04:28:33;;;;;;;6.10;0.93;;;7.20;99.90;;;;;;4992370;28;20898;-53
2021/12/02 04:30:59;;;;;;;5.18;1.20;;;5.50;99.90;;;;;;4991343;28;20856;-54
2021/12/02 04:33:25;;;;;;;3.90;0.90;;;5.50;99.90;;;;;;4992472;28;20383;-53
2021/12/02 04:35:52;;;;;;;5.00;0.90;;;5.60;99.90;;;;;;4990997;28;20887;-54
2021/12/02 04:38:21;;;;;;;4.70;0.90;;;5.60;99.90;;;;;;4990161;28;20398;-53
2021/12/02 04:40:47;;;;;;;4.43;0.90;;;5.50;99.90;;;;;;4991412;28;20856;-53
2021/12/02 04:43:13;;;;;;;4.30;0.97;;;5.50;99.90;;;;;;4989887;28;20998;-54
2021/12/02 04:45:38;;;;;;;5.13;0.80;;;5.50;99.90;;;;;;4991508;28;20414;-54
2021/12/02 04:48:05;;;;;;;3.80;0.80;;;6.10;99.90;;;;;;4990700;28;20798;-53
2021/12/02 04:50:30;;;;;;;4.60;1.10;;;5.40;99.90;;;;;;4991183;28;20422;-54
2021/12/02 04:52:56;;;;;;;5.00;1.00;;;6.50;99.90;;;;;;4991605;28;20410;-58
2021/12/02 04:55:22;;;;;;;5.07;1.20;;;5.40;99.90;;;;;;4990224;28;20477;-53
2021/12/02 04:57:48;;;;;;;6.00;1.30;;;5.50;99.90;;;;;;4992065;28;20394;-54
2021/12/02 05:00:15;;;;;;;5.88;1.27;;;5.50;99.90;;;;;;4989964;28;20413;-54
2021/12/02 05:02:41;;;;;;;5.35;1.17;;;5.50;99.90;;;;;;4991803;28;20379;-54
2021/12/02 05:05:09;;;;;;;9.02;2.50;;;5.50;99.90;;;;;;4990988;28;20391;-54
2021/12/02 05:07:35;;;;;;;6.55;1.63;;;5.30;99.90;;;;;;4991838;28;20382;-54
2021/12/02 05:10:01;;;;;;;3.70;1.10;;;5.60;99.90;;;;;;4990739;28;20470;-54
2021/12/02 05:12:27;;;;;;;5.47;1.00;;;5.40;99.90;;;;;;4991791;28;20382;-54
2021/12/02 05:14:53;;;;;;;7.00;1.90;;;5.40;99.90;;;;;;4991409;28;20421;-54
2021/12/02 05:17:18;;;;;;;5.50;1.60;;;5.40;99.90;;;;;;4990814;28;21001;-53
2021/12/02 05:19:44;;;;;;;4.43;0.90;;;5.30;99.90;;;;;;4988863;28;20387;-54
2021/12/02 05:22:11;;;;;;;4.57;0.90;;;5.30;99.90;;;;;;4972278;28;20435;-53
2021/12/02 05:24:37;;;;;;;3.77;0.80;;;5.60;99.90;;;;;;4972264;28;20419;-53
2021/12/02 05:27:03;;;;;;;3.60;0.80;;;5.30;99.90;;;;;;4975783;28;20783;-54
2021/12/02 05:29:29;;;;;;;4.40;0.80;;;5.30;99.90;;;;;;4990927;28;20740;-53
2021/12/02 05:31:54;;;;;;;3.88;0.70;;;5.30;99.90;;;;;;4989090;28;20386;-53
2021/12/02 05:34:21;;;;;;;4.93;0.70;;;5.30;99.90;;;;;;4988802;28;20391;-54
2021/12/02 05:36:46;;;;;;;5.15;1.15;;;5.30;99.90;;;;;;4971594;28;20423;-54
2021/12/02 05:39:12;;;;;;;5.10;0.80;;;5.40;99.90;;;;;;4970987;28;20400;-54
2021/12/02 05:41:38;;;;;;;3.72;0.90;;;5.30;99.90;;;;;;4984942;28;20426;-54
2021/12/02 05:44:04;;;;;;;4.45;0.90;;;5.30;99.90;;;;;;4984949;28;20412;-54
2021/12/02 05:46:30;;;;;;;4.20;0.80;;;5.20;99.90;;;;;;4987175;28;20398;-56
2021/12/02 05:48:56;;;;;;;6.38;0.90;;;5.20;99.90;;;;;;4985183;28;20839;-58
2021/12/02 05:51:22;;;;;;;4.07;0.60;;;5.20;99.90;;;;;;4988577;28;20403;-53
2021/12/02 05:53:48;;;;;;;4.00;0.80;;;5.20;99.90;;;;;;4982334;28;20415;-54
2021/12/02 05:56:13;;;;;;;4.00;0.80;;;5.30;99.90;;;;;;4978483;28;20549;-56
2021/12/02 05:58:39;;;;;;;5.20;0.70;;;5.30;99.90;;;;;;4990076;28;20387;-55
2021/12/02 06:01:05;;;;;;;4.45;0.70;;;5.50;99.90;;;;;;4989706;28;20391;-54
2021/12/02 06:03:31;;;;;;;3.50;0.73;;;5.30;99.90;;;;;;4985421;28;20407;-54
2021/12/02 06:05:57;;;;;;;3.25;0.60;;;5.20;99.90;;;;;;4970684;28;20407;-59
2021/12/02 06:08:22;;;;;;;4.20;0.70;;;5.20;99.90;;;;;;4979302;28;20407;-53
2021/12/02 06:10:48;;;;;;;4.85;0.70;;;5.20;99.90;;;;;;4990750;28;20418;-54
2021/12/02 06:13:14;;;;;;;3.40;0.60;;;5.30;99.90;;;;;;4989432;28;20418;-53
2021/12/02 06:15:41;;;;;;;4.00;0.70;;;5.10;99.90;;;;;;4990489;28;20524;-54
2021/12/02 06:18:08;;;;;;;4.00;0.80;;;5.10;99.90;;;;;;4987670;28;20449;-54
2021/12/02 06:20:34;;;;;;;3.70;0.80;;;5.00;99.90;;;;;;4990527;28;20430;-54
2021/12/02 06:23:00;;;;;;;4.57;0.60;;;5.00;99.90;;;;;;4989643;28;20463;-58
2021/12/02 06:27:53;;;;;;;4.60;0.90;;;5.00;99.90;;;;;;4989439;28;20390;-53
2021/12/02 06:30:21;;;;;;;4.75;1.17;;;5.00;99.90;;;;;;4986856;28;20382;-56
2021/12/02 06:32:47;;;;;;;3.88;1.05;;;5.20;99.90;;;;;;4988762;28;20489;-53
2021/12/02 06:35:13;;;;;;;5.82;0.90;;;5.20;99.90;;;;;;4988750;28;20846;-55
2021/12/02 06:37:39;;;;;;;4.10;0.80;;;5.20;99.90;;;;;;4985144;28;20413;-54
2021/12/02 06:40:07;;;;;;;4.50;1.50;;;5.20;99.90;;;;;;4989429;28;20875;-54
2021/12/02 06:42:32;;;;;;;5.32;1.20;;;5.10;99.90;;;;;;4989675;28;20398;-54
2021/12/02 06:44:59;;;;;;;3.97;0.90;;;5.50;99.90;;;;;;4989613;28;20414;-59
2021/12/02 06:47:30;;;;;;;3.90;0.93;;;4.90;99.90;;;;;;4990178;28;20391;-54
2021/12/02 06:49:59;;;;;;;5.10;1.10;;;4.90;99.90;;;;;;4989808;28;20962;-55
2021/12/02 06:52:27;;;;;;;4.07;0.90;;;4.80;99.90;;;;;;4988179;28;20425;-55
2021/12/02 06:54:53;;;;;;;5.38;1.00;;;4.80;99.90;;;;;;4989214;28;20430;-55
2021/12/02 06:57:19;;;;;;;3.38;0.57;;;4.80;99.90;;;;;;4988756;28;20391;-54
2021/12/02 06:59:45;;;;;;;3.72;0.70;;;4.80;99.90;;;;;;4991636;28;20382;-55
2021/12/02 07:02:11;;;;;;;4.60;0.90;;;4.70;99.90;;;;;;4993137;28;20740;-54
2021/12/02 07:04:36;;;;;;;3.57;0.90;;;4.80;99.90;;;;;;4987901;28;20417;-54
2021/12/02 07:07:02;;;;;;;3.67;0.82;;;4.80;99.90;;;;;;4992949;28;20386;-55
2021/12/02 07:09:28;;;;;;;3.60;0.70;;;4.80;99.90;;;;;;4993666;28;20394;-54
2021/12/02 07:11:55;;;;;;;3.28;0.70;;;4.80;99.90;;;;;;4993140;28;20982;-54
2021/12/02 07:14:22;;;;;;;4.30;0.70;;;4.90;99.90;;;;;;4992850;28;20468;-55
2021/12/02 07:16:48;;;;;;;3.70;0.70;;;4.90;99.90;;;;;;4993820;28;20437;-54
2021/12/02 07:19:14;;;;;;;5.50;0.80;;;5.80;99.90;;;;;;4992749;28;20403;-54
2021/12/02 07:21:40;;;;;;;3.20;0.60;;;4.90;99.90;;;;;;4992535;28;20383;-55
2021/12/02 07:24:08;;;;;;;4.20;0.60;;;5.00;99.90;;;;;;4992505;28;20464;-55
2021/12/02 07:26:36;;;;;;;3.58;0.68;;;5.00;99.90;;;;;;4993651;28;20410;-55
2021/12/02 07:29:02;;;;;;;3.50;0.60;;;5.00;99.90;;;;;;4992350;28;20418;-55
2021/12/02 07:31:30;;;;;;;3.60;0.80;;;5.00;99.90;;;;;;4992225;28;20421;-54
2021/12/02 07:33:57;;;;;;;4.70;0.60;;;4.90;99.90;;;;;;4993015;28;20422;-54
2021/12/02 07:36:23;;;;;;;3.80;0.50;;;5.00;99.90;;;;;;4992313;28;20410;-54
2021/12/02 07:38:49;;;;;;;3.22;0.52;;;5.00;99.90;;;;;;4993130;28;20952;-55
2021/12/02 07:41:15;;;;;;;5.85;0.90;;;4.90;99.90;;;;;;4992196;28;20477;-54
2021/12/02 07:43:41;;;;;;;3.13;0.40;;;5.00;99.90;;;;;;4992247;28;20469;-54
2021/12/02 07:46:07;;;;;;;3.83;0.50;;;5.10;99.90;;;;;;4991564;28;20402;-54
2021/12/02 07:48:34;;;;;;;3.00;0.43;;;5.00;99.90;;;;;;4993207;28;20437;-54
2021/12/02 07:51:02;;;;;;;3.17;0.70;;;5.00;99.90;;;;;;4972706;28;20383;-59
2021/12/02 07:53:28;;;;;;;3.53;0.75;;;4.90;99.90;;;;;;4973397;28;20810;-55
2021/12/02 07:55:56;;;;;;;3.75;0.70;;;5.00;99.90;;;;;;4973129;28;20885;-54
2021/12/02 07:58:24;;;;;;;3.50;0.60;;;5.00;99.90;;;;;;4972265;28;21001;-54
2021/12/02 08:00:50;;;;;;;3.88;0.80;;;5.10;99.90;;;;;;4976478;28;20406;-56
2021/12/02 08:03:16;;;;;;;3.30;0.70;;;5.10;99.90;;;;;;4990768;28;20397;-55
2021/12/02 08:05:43;;;;;;;5.10;0.70;;;5.10;99.90;;;;;;4991011;28;20493;-55
2021/12/02 08:08:09;;;;;;;4.50;0.98;;;5.10;99.90;;;;;;4990603;28;20894;-55
2021/12/02 08:10:36;;;;;;;3.60;0.65;;;5.10;99.90;;;;;;4992155;28;20394;-54
2021/12/02 08:13:03;;;;;;;3.70;0.52;;;5.00;99.90;;;;;;4991679;28;20402;-58
2021/12/02 08:15:30;;;;;;;3.70;0.80;;;5.10;99.90;;;;;;4990135;28;20969;-55
2021/12/02 08:17:58;;;;;;;3.65;0.90;;;5.20;99.90;;;;;;4990765;28;20406;-54
2021/12/02 08:20:25;;;;;;;3.90;0.70;;;5.30;99.90;;;;;;4991461;28;20804;-54
2021/12/02 08:22:52;;;;;;;4.72;0.90;;;5.90;99.90;;;;;;4991567;28;20383;-55
2021/12/02 08:25:20;;;;;;;3.55;0.60;;;5.50;99.90;;;;;;4991361;28;20398;-55
2021/12/02 08:27:47;;;;;;;3.40;0.70;;;5.60;99.90;;;;;;4991886;28;20481;-54
2021/12/02 08:30:15;;;;;;;4.50;0.70;;;5.70;99.90;;;;;;4990702;28;20619;-54
2021/12/02 08:32:43;;;;;;;5.40;0.70;;;5.80;99.90;;;;;;4981374;28;20535;-54
2021/12/02 08:35:10;;;;;;;4.40;0.70;;;5.90;99.90;;;;;;4991172;28;20423;-54
2021/12/02 08:37:40;;;;;;;3.70;0.90;;;5.80;99.90;;;;;;4990237;28;20394;-54
2021/12/02 08:40:07;;;;;;;4.07;1.10;;;5.90;99.90;;;;;;4990783;28;20756;-55
2021/12/02 08:42:32;;;;;;;3.90;0.85;;;5.90;99.90;;;;;;4991675;28;20525;-55
2021/12/02 08:45:00;;;;;;;5.25;1.10;;;6.00;99.90;;;;;;4990497;28;20410;-56
2021/12/02 08:47:28;;;;;;;3.80;1.00;;;6.10;99.90;;;;;;4991544;28;20401;-54
2021/12/02 08:49:55;;;;;;;3.90;0.80;;;6.10;99.90;;;;;;4991775;28;20390;-54
2021/12/02 08:52:22;;;;;;;4.70;0.90;;;6.10;99.90;;;;;;4990249;28;20999;-53
2021/12/02 08:54:51;;;;;;;4.10;1.20;;;6.10;99.90;;;;;;4990163;28;20402;-52
2021/12/02 08:57:19;;;;;;;3.80;1.10;;;6.20;99.90;;;;;;4990834;28;20386;-54
2021/12/02 08:59:45;;;;;;;4.70;1.00;;;6.20;99.90;;;;;;4990922;28;20390;-53
2021/12/02 09:02:12;;;;;;;4.40;1.30;;;6.20;99.90;;;;;;4990318;28;20397;-52
2021/12/02 09:04:38;;;;;;;5.00;1.23;;;6.20;99.90;;;;;;4990474;28;20463;-52
2021/12/02 09:07:05;;;;;;;3.90;1.20;;;6.30;99.90;;;;;;4984840;28;20404;-53
2021/12/02 09:09:30;;;;;;;4.40;1.23;;;6.40;99.90;;;;;;4989965;28;20477;-52
2021/12/02 09:11:57;;;;;;;5.32;1.50;;;6.40;99.90;;;;;;4986494;28;21061;-52
2021/12/02 09:14:23;;;;;;;4.90;1.30;;;7.10;99.90;;;;;;4989275;28;20406;-53
2021/12/02 09:16:50;;;;;;;5.03;1.20;;;6.50;99.90;;;;;;4990724;28;20422;-52
2021/12/02 09:19:17;;;;;;;5.07;1.70;;;6.50;99.90;;;;;;4988540;28;20407;-52
2021/12/02 09:21:42;;;;;;;9.93;2.00;;;6.40;99.90;;;;;;4984953;28;20399;-53
2021/12/02 09:24:08;;;;;;;4.60;1.70;;;6.40;99.90;;;;;;4989203;28;20461;-52
2021/12/02 09:26:34;;;;;;;5.30;1.73;;;6.30;99.90;;;;;;4990776;28;20437;-53
2021/12/02 09:29:00;;;;;;;5.40;1.90;;;6.10;99.90;;;;;;4990631;28;20865;-58
2021/12/02 09:31:25;;;;;;;5.20;1.70;;;6.10;99.90;;;;;;4990177;28;20399;-53
2021/12/02 09:33:52;;;;;;;6.35;2.30;;;6.10;99.90;;;;;;4989437;28;20653;-54
2021/12/02 09:36:18;;;;;;;5.40;2.03;;;5.80;99.90;;;;;;4989921;28;20410;-54
2021/12/02 09:38:45;;;;;;;5.72;2.50;;;5.50;99.90;;;;;;4990351;28;20448;-53
2021/12/02 09:41:11;;;;;;;5.20;1.90;;;5.50;99.90;;;;;;4990118;28;20391;-54
2021/12/02 09:43:37;;;;;;;8.15;2.10;;;5.30;99.90;;;;;;4990174;28;20741;-56
2021/12/02 09:46:03;;;;;;;4.60;1.20;;;5.10;99.90;;;;;;4989989;28;20413;-55
2021/12/02 09:48:30;;;;;;;6.18;2.10;;;4.80;99.90;;;;;;4990787;28;20402;-55
2021/12/02 09:53:32;;;;;;;4.53;1.33;;;5.00;99.90;;;;;;4990516;28;20391;-57
2021/12/02 09:56:24;;;;;;;4.13;1.30;;;4.30;99.90;;;;;;4990406;28;20823;-60
2021/12/02 09:58:45;;;;;;;4.38;1.45;;;4.20;99.90;;;;;;4990100;28;20406;-55
2021/12/02 10:01:13;;;;;;;4.50;1.37;;;4.20;99.90;;;;;;4990021;28;20390;-55
2021/12/02 10:03:41;;;;;;;3.65;1.00;;;4.10;99.90;;;;;;4990058;28;20970;-55
2021/12/02 10:06:10;;;;;;;6.70;1.20;;;4.10;99.90;;;;;;4989820;28;20492;-55
2021/12/02 10:08:52;;;;;;;5.18;1.10;;;4.00;99.90;;;;;;4990538;28;20426;-55
2021/12/02 10:11:36;;;;;;;4.80;1.17;;;5.60;99.90;;;;;;4989332;28;20405;-55
2021/12/02 10:14:18;;;;;;;3.80;1.30;;;4.00;99.90;;;;;;4989580;28;20871;-59
2021/12/02 10:16:47;;;;;;;4.60;1.10;;;3.90;99.90;;;;;;4990007;28;20496;-55
2021/12/02 10:19:32;;;;;;;9.40;1.77;;;3.90;99.90;;;;;;4989119;28;20768;-56
2021/12/02 10:22:11;;;;;;;4.57;1.70;;;4.10;99.90;;;;;;4987236;28;20410;-56
2021/12/02 10:24:44;;;;;;;4.03;1.52;;;4.50;99.90;;;;;;4989048;28;20418;-55
2021/12/02 10:27:10;;;;;;;3.90;1.40;;;4.30;99.90;;;;;;4984664;28;20399;-55
2021/12/02 10:29:39;;;;;;;4.07;1.80;;;5.90;99.90;;;;;;4986799;28;20745;-55
2021/12/02 10:32:16;;;;;;;4.60;1.70;;;4.20;99.90;;;;;;4987679;28;20498;-54
2021/12/02 10:35:01;;;;;;;4.75;1.60;;;4.30;99.90;;;;;;4988520;28;20474;-55
2021/12/02 10:37:35;;;;;;;3.80;1.42;;;4.30;99.90;;;;;;4989379;28;20394;-55
2021/12/02 10:40:04;;;;;;;4.45;1.50;;;4.30;99.90;;;;;;4989192;28;20429;-59
2021/12/02 10:42:31;;;;;;;5.57;1.80;;;4.30;99.90;;;;;;4989983;28;20479;-55
2021/12/02 10:45:01;;;;;;;5.50;2.00;;;4.30;99.90;;;;;;4989616;28;20421;-55
2021/12/02 10:47:28;;;;;;;4.97;2.00;;;4.20;99.90;;;;;;4989051;28;20423;-56
2021/12/02 10:50:07;;;;;;;5.15;1.80;;;4.30;99.90;;;;;;4990248;28;20383;-55
2021/12/02 10:52:34;;;;;;;4.65;1.80;;;4.20;99.90;;;;;;4989964;28;20498;-55
2021/12/02 10:55:07;;;;;;;4.00;1.40;;;4.30;99.90;;;;;;4989744;28;20390;-55
2021/12/02 10:57:35;;;;;;;4.25;1.48;;;4.00;99.90;;;;;;4989685;28;20386;-55
2021/12/02 11:00:05;;;;;;;5.55;1.65;;;5.40;99.90;;;;;;4989786;28;20441;-60
2021/12/02 11:02:33;;;;;;;4.57;1.52;;;4.00;99.90;;;;;;4989665;28;20394;-55
2021/12/02 11:05:08;;;;;;;5.10;2.00;;;4.20;99.90;;;;;;4989702;28;20378;-55
2021/12/02 11:07:40;;;;;;;6.55;2.70;;;4.00;99.90;;;;;;4989872;28;20417;-55
2021/12/02 11:10:14;;;;;;;5.28;2.50;;;5.10;99.90;;;;;;4988284;28;20818;-55
2021/12/02 11:12:45;;;;;;;9.05;3.85;;;4.00;99.90;;;;;;4989702;28;20398;-55
2021/12/02 11:15:23;;;;;;;7.30;2.40;;;4.10;99.90;;;;;;4969371;28;20419;-55
2021/12/02 11:17:57;;;;;;;4.30;1.70;;;4.00;99.90;;;;;;4969074;28;20411;-55
2021/12/02 11:20:39;;;;;;;5.25;1.80;;;4.00;99.90;;;;;;4968226;28;21099;-55
2021/12/02 11:23:09;;;;;;;4.20;1.60;;;4.10;99.90;;;;;;4969249;28;20388;-59
2021/12/02 11:25:38;;;;;;;6.30;1.67;;;4.20;99.90;;;;;;4970042;28;20439;-56
2021/12/02 11:28:08;;;;;;;4.57;1.85;;;4.30;99.90;;;;;;4969466;28;20388;-60
2021/12/02 11:30:36;;;;;;;4.68;1.60;;;4.40;99.90;;;;;;4969837;28;20427;-56
2021/12/02 11:33:06;;;;;;;5.43;1.90;;;4.50;99.90;;;;;;4969512;28;20396;-59
2021/12/02 11:35:33;;;;;;;5.22;1.50;;;4.60;99.90;;;;;;4969998;28;20440;-55
2021/12/02 11:38:09;;;;;;;4.60;1.75;;;4.90;99.90;;;;;;4969634;28;21253;-55
2021/12/02 11:40:42;;;;;;;4.83;1.80;;;4.90;99.90;;;;;;4969479;28;20388;-54
2021/12/02 11:43:11;;;;;;;5.10;2.10;;;4.90;99.90;;;;;;4969269;28;20387;-56
2021/12/02 11:45:46;;;;;;;5.30;1.65;;;5.00;99.90;;;;;;4969882;28;20420;-53
2021/12/02 11:48:17;;;;;;;5.60;2.00;;;5.10;99.90;;;;;;4973010;28;20925;-53
2021/12/02 11:50:43;;;;;;;5.90;2.00;;;5.20;99.90;;;;;;4973491;28;20380;-53
2021/12/02 11:53:09;;;;;;;4.53;1.80;;;5.20;99.90;;;;;;4972593;28;20395;-55
2021/12/02 11:55:39;;;;;;;5.30;2.30;;;5.30;99.90;;;;;;4973181;28;20419;-53
2021/12/02 11:58:05;;;;;;;5.67;2.73;;;5.40;99.90;;;;;;4987793;28;20411;-58
2021/12/02 12:00:31;;;;;;;7.65;3.60;;;5.50;99.90;;;;;;4973094;28;20407;-53
2021/12/02 12:03:09;;;;;;;8.02;3.90;;;5.50;99.90;;;;;;4973436;28;20392;-53
2021/12/02 12:05:56;;;;;;;4.70;1.60;;;5.40;99.90;;;;;;4973188;28;20734;-53
2021/12/02 12:08:46;;;;;;;6.47;2.20;;;5.30;99.90;;;;;;4980225;28;21030;-53
2021/12/02 12:11:18;;;;;;;11.03;4.03;;;5.10;99.90;;;;;;4991315;28;20418;-53
2021/12/02 12:13:52;;;;;;;14.30;5.20;;;5.10;99.90;;;;;;4992304;28;20863;-53
2021/12/02 12:16:36;;;;;;;9.20;4.70;;;5.30;99.90;;;;;;4991969;28;20414;-53
2021/12/02 12:19:27;;;;;;;20.58;7.60;;;5.40;99.90;;;;;;4991934;28;20399;-57
2021/12/02 12:21:56;;;;;;;25.48;9.40;;;4.80;99.90;;;;;;4992460;28;20479;-53
2021/12/02 12:24:41;;;;;;;27.98;7.85;;;5.40;99.90;;;;;;4991222;28;21053;-53
2021/12/02 12:27:24;;;;;;;29.17;8.45;;;5.30;99.90;;;;;;4990883;28;20386;-56
2021/12/02 12:30:11;;;;;;;5.90;2.33;;;5.40;99.90;;;;;;4991871;28;20382;-54
2021/12/02 12:36:22;;;;;;;12.02;3.70;;;5.30;99.90;;;;;;4990985;28;20497;-53
2021/12/02 12:38:23;;;;;;;9.32;3.17;;;5.40;99.90;;;;;;4977098;28;20880;-53
2021/12/02 12:41:01;;;;;;;27.87;8.70;;;5.50;99.90;;;;;;4991970;28;20379;-54
2021/12/02 12:43:35;;;;;;;11.02;5.88;;;5.40;99.90;;;;;;4990912;28;20421;-53
2021/12/02 12:46:06;;;;;;;10.88;5.75;;;5.50;99.90;;;;;;4991715;28;20463;-53
2021/12/02 12:48:33;;;;;;;8.35;3.70;;;5.70;99.90;;;;;;4991995;28;20426;-53
2021/12/02 12:51:26;;;;;;;6.30;2.70;;;5.80;99.90;;;;;;4991681;28;21000;-53
2021/12/02 12:53:54;;;;;;;6.20;3.20;;;5.80;99.90;;;;;;4991652;28;20406;-53
2021/12/02 12:56:39;;;;;;;6.30;3.10;;;5.80;99.90;;;;;;4990296;28;20401;-54
2021/12/02 12:59:10;;;;;;;6.00;2.50;;;5.60;99.90;;;;;;4991149;28;20390;-58
2021/12/02 13:01:38;;;;;;;7.05;2.75;;;5.60;99.90;;;;;;4990433;28;20395;-54
2021/12/02 13:04:08;;;;;;;5.10;2.00;;;5.40;99.90;;;;;;4991350;28;20481;-58
2021/12/02 13:06:55;;;;;;;5.40;2.40;;;5.50;99.90;;;;;;4991451;28;20872;-53
2021/12/02 13:09:35;;;;;;;6.35;2.10;;;5.50;99.90;;;;;;4990763;28;20387;-54
2021/12/02 13:12:03;;;;;;;6.45;2.30;;;5.50;99.90;;;;;;4990867;28;20796;-58
2021/12/02 13:14:29;;;;;;;6.70;2.40;;;5.70;99.90;;;;;;4990287;28;20398;-53
2021/12/02 13:16:55;;;;;;;5.80;1.90;;;5.60;99.90;;;;;;4991139;28;20418;-54
2021/12/02 13:19:21;;;;;;;6.50;2.10;;;5.60;99.90;;;;;;4987858;28;20454;-54
2021/12/02 13:21:56;;;;;;;7.60;2.47;;;5.60;99.90;;;;;;4989611;28;20418;-54
2021/12/02 13:24:34;;;;;;;7.15;2.10;;;5.70;99.90;;;;;;4990370;28;20394;-54
2021/12/02 13:27:01;;;;;;;6.13;2.50;;;5.70;99.90;;;;;;4990775;28;20386;-55
2021/12/02 13:29:29;;;;;;;6.25;2.22;;;5.70;99.90;;;;;;4985425;28;20410;-54
2021/12/02 13:32:02;;;;;;;7.32;2.42;;;5.50;99.90;;;;;;4990063;28;20471;-54
2021/12/02 13:34:29;;;;;;;5.85;2.30;;;5.40;99.90;;;;;;4987870;28;20395;-55
2021/12/02 13:37:09;;;;;;;5.95;2.00;;;5.50;99.90;;;;;;4988515;28;20457;-55